Portada
METAR-TAF:

METAR-TAF

Aeroports :

Woodvale, Anglaterra

latitud: 53-34-54N, longitud: 003-03-20W, altitud: 11 m

Observació

L'informe es va fer fa 7 hores i 50 minuts, a les 14:20 UTC
Vent 20 kt del Sud-Oest amb ràfegues de 38 kt
Temperatura 8°C
Humitat 71%
Pressió 1009 hPa
Visibilitat 10 km o més
Cel ennuvolat a una alçada de 2000 ft
xàfecs en les proximitats

METAR: EGOW 181420Z 23020G38KT 9999 VCSH BKN020 08/03 Q1009 RMK WHT

Hora: 22:10 (22:10 UTC)

Pronòstic

L'informe es va fer fa 8 hores i 23 minuts, a les 13:47 UTC
Pronòstic vàlid del 18 a les 15 UTC al 18 a les 18 UTC
Vent 25 kt del Oest amb ràfegues de 35 kt
Visibilitat 10 km o més
Escasses núvols a una alçada de 1500 ft
Probabilitat 40% :
Temporalment
l' 18 a les 15 UTC al 18 a les 18 UTC
Visibilitat: 4000 m
Núvols disperses a una alçada de 1400 ft, Cumulonimbus.
xàfecs de pluja

TAF: EGOW 181347Z 1815/1818 26025G35KT 9999 FEW015 PROB40 TEMPO 1815/1818 4000 SHRA SCT014CB

Observacions i pronòstics meteorològics de més de 4000 aeroports (METAR i TAF).

Les estacions disponibles són els punts grocs i vermells al mapa.

Posi el ratolí al punt desitjat per veure el nom de l'estació.

Feu clic per veure les observacions i els pronòstics meteorològics.

Per canviar el mapa: feu clic els botons verds amb una creu de color negre per apropar; al botó verd amb un guió per allunyar la imatge; o en les fletxes verdes per a mapes adjacents.


METAR-TAF: